createdAt,value
2018-12-21T00:01:10.363Z,3.81
2018-12-21T00:03:37.767Z,3.81
2018-12-21T00:06:05.711Z,3.81
2018-12-21T00:08:33.097Z,3.81
2018-12-21T00:11:00.487Z,3.80
2018-12-21T00:13:27.928Z,3.81
2018-12-21T00:15:55.315Z,3.81
2018-12-21T00:18:22.716Z,3.80
2018-12-21T00:20:50.332Z,3.79
2018-12-21T00:23:17.727Z,3.79
2018-12-21T00:25:45.780Z,3.80
2018-12-21T00:28:13.307Z,3.79
2018-12-21T00:30:40.195Z,3.79
2018-12-21T00:33:13.186Z,3.79
2018-12-21T00:35:47.043Z,3.77
2018-12-21T00:38:20.135Z,3.79
2018-12-21T00:40:53.533Z,3.79
2018-12-21T00:43:25.279Z,3.79
2018-12-21T00:45:54.733Z,3.78
2018-12-21T00:48:22.502Z,3.78
2018-12-21T00:50:50.095Z,3.77
2018-12-21T00:53:17.799Z,3.78
2018-12-21T00:55:45.245Z,3.77
2018-12-21T00:58:12.699Z,3.79
2018-12-21T01:00:40.254Z,3.80
2018-12-21T01:03:07.655Z,3.79
2018-12-21T01:05:35.740Z,3.77
2018-12-21T01:08:03.652Z,3.77
2018-12-21T01:10:31.103Z,3.77
2018-12-21T01:12:58.624Z,3.78
2018-12-21T01:15:26.303Z,3.78
2018-12-21T01:17:53.927Z,3.79
2018-12-21T01:20:21.851Z,3.78
2018-12-21T01:22:49.315Z,3.79
2018-12-21T01:25:16.715Z,3.81
2018-12-21T01:27:44.105Z,3.84
2018-12-21T01:30:11.519Z,3.88
2018-12-21T01:32:38.927Z,3.90
2018-12-21T01:35:06.384Z,3.91
2018-12-21T01:37:33.855Z,3.91
2018-12-21T01:40:01.247Z,3.90
2018-12-21T01:42:29.291Z,3.90
2018-12-21T01:44:56.827Z,3.88
2018-12-21T01:47:24.223Z,3.89
2018-12-21T01:49:51.617Z,3.88
2018-12-21T01:52:19.077Z,3.87
2018-12-21T01:54:46.471Z,3.85
2018-12-21T01:57:14.060Z,3.84
2018-12-21T01:59:41.481Z,3.84
2018-12-21T02:02:09.174Z,3.83
2018-12-21T02:04:36.564Z,3.83
2018-12-21T02:07:04.053Z,3.82
2018-12-21T02:09:32.257Z,3.82
2018-12-21T02:11:59.840Z,3.81
2018-12-21T02:14:27.440Z,3.82
2018-12-21T02:16:55.056Z,3.83
2018-12-21T02:19:22.452Z,3.84
2018-12-21T02:21:55.861Z,3.81
2018-12-21T02:24:19.628Z,3.78
2018-12-21T02:26:47.708Z,3.74
2018-12-21T02:29:15.282Z,3.72
2018-12-21T02:31:42.716Z,3.70
2018-12-21T02:34:10.098Z,3.70
2018-12-21T02:36:37.552Z,3.72
2018-12-21T02:39:06.069Z,3.73
2018-12-21T02:41:34.402Z,3.75
2018-12-21T02:44:01.912Z,3.77
2018-12-21T02:46:29.586Z,3.77
2018-12-21T02:48:57.174Z,3.77
2018-12-21T02:51:24.957Z,3.77
2018-12-21T02:53:52.344Z,3.79
2018-12-21T02:56:19.741Z,3.80
2018-12-21T02:58:47.385Z,3.81
2018-12-21T03:01:14.891Z,3.82
2018-12-21T03:03:42.279Z,3.81
2018-12-21T03:06:09.871Z,3.80
2018-12-21T03:08:37.320Z,3.78
2018-12-21T03:11:05.193Z,3.77
2018-12-21T03:13:32.759Z,3.77
2018-12-21T03:16:00.456Z,3.73
2018-12-21T03:18:27.855Z,3.73
2018-12-21T03:20:55.272Z,3.72
2018-12-21T03:23:23.317Z,3.72
2018-12-21T03:25:51.058Z,3.72
2018-12-21T03:28:18.483Z,3.70
2018-12-21T03:30:45.878Z,3.72
2018-12-21T03:33:13.280Z,3.72
2018-12-21T03:35:40.898Z,3.68
2018-12-21T03:38:08.383Z,3.66
2018-12-21T03:40:35.783Z,3.63
2018-12-21T03:43:03.474Z,3.61
2018-12-21T03:45:30.867Z,3.58
2018-12-21T03:47:58.268Z,3.55
2018-12-21T03:50:25.678Z,3.53
2018-12-21T03:52:53.101Z,3.50
2018-12-21T03:55:20.545Z,3.49
2018-12-21T03:57:48.004Z,3.47
2018-12-21T04:00:16.007Z,3.46
2018-12-21T04:02:43.596Z,3.43
2018-12-21T04:05:11.189Z,3.42
2018-12-21T04:07:38.584Z,3.40
2018-12-21T04:10:06.040Z,3.38
2018-12-21T04:12:33.468Z,3.39
2018-12-21T04:15:00.859Z,3.39
2018-12-21T04:17:29.147Z,3.40
2018-12-21T04:19:56.827Z,3.42
2018-12-21T04:22:33.785Z,3.43
2018-12-21T04:24:53.714Z,3.44
2018-12-21T04:27:21.133Z,3.44
2018-12-21T04:29:48.529Z,3.42
2018-12-21T04:32:15.926Z,3.42
2018-12-21T04:34:43.442Z,3.40
2018-12-21T04:37:10.834Z,3.40
2018-12-21T04:39:38.225Z,3.39
2018-12-21T04:42:05.667Z,3.37
2018-12-21T04:44:33.059Z,3.37
2018-12-21T04:47:00.990Z,3.35
2018-12-21T04:49:28.555Z,3.37
2018-12-21T04:51:55.944Z,3.37
2018-12-21T04:54:23.344Z,3.37
2018-12-21T04:56:51.037Z,3.37
2018-12-21T04:59:18.427Z,3.37
2018-12-21T05:01:45.831Z,3.38
2018-12-21T05:04:19.879Z,3.39
2018-12-21T05:06:43.405Z,3.40
2018-12-21T05:09:10.857Z,3.39
2018-12-21T05:11:38.374Z,3.38
2018-12-21T05:14:07.901Z,3.39
2018-12-21T05:16:35.163Z,3.40
2018-12-21T05:19:02.801Z,3.40
2018-12-21T05:21:30.235Z,3.43
2018-12-21T05:23:57.627Z,3.43
2018-12-21T05:26:25.129Z,3.42
2018-12-21T05:28:52.508Z,3.43
2018-12-21T05:31:28.077Z,3.42
2018-12-21T05:33:49.329Z,3.42
2018-12-21T05:36:16.884Z,3.43
2018-12-21T05:38:44.280Z,3.43
2018-12-21T05:41:11.953Z,3.43
2018-12-21T05:43:39.740Z,3.45
2018-12-21T05:46:07.160Z,3.44
2018-12-21T05:48:34.825Z,3.45
2018-12-21T05:51:02.219Z,3.43
2018-12-21T05:53:29.608Z,3.46
2018-12-21T05:55:57.192Z,3.47
2018-12-21T05:58:24.600Z,3.49
2018-12-21T06:00:51.990Z,3.51
2018-12-21T06:03:19.458Z,3.52
2018-12-21T06:05:46.929Z,3.51
2018-12-21T06:08:14.326Z,3.51
2018-12-21T06:10:42.033Z,3.51
2018-12-21T06:13:09.424Z,3.50
2018-12-21T06:15:37.412Z,3.53
2018-12-21T06:18:05.100Z,3.54
2018-12-21T06:20:32.553Z,3.53
2018-12-21T06:23:00.033Z,3.52
2018-12-21T06:25:27.730Z,3.52
2018-12-21T06:27:55.116Z,3.52
2018-12-21T06:30:22.816Z,3.53
2018-12-21T06:32:50.274Z,3.51
2018-12-21T06:35:17.986Z,3.51
2018-12-21T06:37:45.396Z,3.50
2018-12-21T06:40:13.049Z,3.47
2018-12-21T06:42:40.770Z,3.48
2018-12-21T06:45:08.281Z,3.48
2018-12-21T06:47:35.834Z,3.47
2018-12-21T06:50:04.074Z,3.47
2018-12-21T06:52:31.459Z,3.47
2018-12-21T06:54:59.224Z,3.46
2018-12-21T06:57:26.684Z,3.46
2018-12-21T06:59:54.086Z,3.47
2018-12-21T07:02:21.512Z,3.47
2018-12-21T07:04:49.315Z,3.48
2018-12-21T07:07:16.703Z,3.50
2018-12-21T07:09:44.280Z,3.49
2018-12-21T07:12:11.684Z,3.51
2018-12-21T07:14:39.089Z,3.52
2018-12-21T07:17:06.855Z,3.53
2018-12-21T07:19:34.251Z,3.57
2018-12-21T07:22:01.654Z,3.58
2018-12-21T07:24:29.227Z,3.57
2018-12-21T07:26:56.623Z,3.55
2018-12-21T07:29:24.799Z,3.51
2018-12-21T07:31:52.891Z,3.46
2018-12-21T07:34:20.283Z,3.43
2018-12-21T07:36:47.734Z,3.42
2018-12-21T07:39:15.439Z,3.39
2018-12-21T07:41:43.019Z,3.41
2018-12-21T07:44:10.422Z,3.41
2018-12-21T07:46:37.880Z,3.41
2018-12-21T07:49:05.274Z,3.42
2018-12-21T07:51:32.665Z,3.42
2018-12-21T07:54:00.243Z,3.43
2018-12-21T07:56:27.635Z,3.42
2018-12-21T07:58:57.318Z,3.43
2018-12-21T08:01:24.560Z,3.43
2018-12-21T08:03:51.968Z,3.44
2018-12-21T08:06:20.216Z,3.49
2018-12-21T08:08:47.754Z,3.51
2018-12-21T08:11:15.203Z,3.56
2018-12-21T08:13:43.017Z,3.56
2018-12-21T08:16:10.529Z,3.55
2018-12-21T08:18:37.923Z,3.54
2018-12-21T08:21:05.327Z,3.53
2018-12-21T08:23:32.743Z,3.58
2018-12-21T08:26:00.141Z,3.66
2018-12-21T08:28:27.539Z,3.73
2018-12-21T08:30:55.451Z,3.78
2018-12-21T08:33:22.910Z,3.83
2018-12-21T08:35:50.431Z,3.88
2018-12-21T08:38:18.148Z,3.93
2018-12-21T08:40:45.545Z,3.96
2018-12-21T08:43:13.463Z,3.98
2018-12-21T08:45:41.135Z,4.01
2018-12-21T08:48:08.722Z,4.05
2018-12-21T08:50:36.317Z,4.09
2018-12-21T08:53:04.021Z,4.11
2018-12-21T08:55:31.424Z,4.12
2018-12-21T08:57:58.826Z,4.11
2018-12-21T09:00:26.287Z,4.11
2018-12-21T09:02:54.299Z,4.14
2018-12-21T09:05:21.698Z,4.20
2018-12-21T09:07:49.270Z,4.23
2018-12-21T09:10:16.979Z,4.25
2018-12-21T09:12:44.377Z,4.29
2018-12-21T09:15:12.769Z,4.32
2018-12-21T09:17:40.170Z,4.32
2018-12-21T09:20:10.289Z,4.32
2018-12-21T09:22:38.009Z,4.31
2018-12-21T09:25:05.531Z,4.32
2018-12-21T09:27:32.948Z,4.29
2018-12-21T09:30:01.707Z,4.29
2018-12-21T09:32:29.103Z,4.28
2018-12-21T09:34:56.489Z,4.27
2018-12-21T09:37:23.903Z,4.30
2018-12-21T09:39:51.509Z,4.35
2018-12-21T09:42:19.183Z,4.41
2018-12-21T09:44:52.478Z,4.43
2018-12-21T09:47:16.052Z,4.47
2018-12-21T09:49:43.448Z,4.53
2018-12-21T09:52:11.169Z,4.61
2018-12-21T09:54:38.638Z,4.70
2018-12-21T09:57:06.020Z,4.74
2018-12-21T09:59:33.635Z,4.79
2018-12-21T10:02:01.157Z,4.83
2018-12-21T10:04:28.636Z,4.89
2018-12-21T10:06:56.429Z,4.95
2018-12-21T10:09:23.818Z,5.02
2018-12-21T10:11:51.235Z,5.08
2018-12-21T10:14:18.908Z,5.14
2018-12-21T10:16:46.303Z,5.21
2018-12-21T10:19:13.692Z,5.26
2018-12-21T10:21:41.140Z,5.31
2018-12-21T10:24:08.516Z,5.37
2018-12-21T10:26:36.628Z,5.43
2018-12-21T10:29:04.261Z,5.48
2018-12-21T10:31:31.916Z,5.49
2018-12-21T10:33:59.306Z,5.52
2018-12-21T10:36:26.941Z,5.54
2018-12-21T10:38:54.644Z,5.52
2018-12-21T10:41:22.100Z,5.53
2018-12-21T10:43:49.614Z,5.51
2018-12-21T10:46:17.365Z,5.49
2018-12-21T10:48:44.752Z,5.52
2018-12-21T10:51:12.284Z,5.58
2018-12-21T10:53:39.767Z,5.64
2018-12-21T10:56:07.979Z,5.70
2018-12-21T10:58:35.428Z,5.69
2018-12-21T11:01:02.880Z,5.68
2018-12-21T11:03:30.732Z,5.62
2018-12-21T11:05:58.265Z,5.60
2018-12-21T11:08:25.913Z,5.59
2018-12-21T11:10:53.351Z,5.59
2018-12-21T11:13:20.936Z,5.62
2018-12-21T11:15:48.342Z,5.63
2018-12-21T11:18:15.756Z,5.63
2018-12-21T11:20:43.308Z,5.64
2018-12-21T11:23:10.713Z,5.62
2018-12-21T11:25:38.121Z,5.61
2018-12-21T11:28:05.895Z,5.59
2018-12-21T11:30:33.704Z,5.59
2018-12-21T11:33:01.112Z,5.60
2018-12-21T11:35:28.535Z,5.61
2018-12-21T11:37:55.965Z,5.61
2018-12-21T11:40:23.364Z,5.62
2018-12-21T11:42:51.030Z,5.63
2018-12-21T11:45:18.428Z,5.62
2018-12-21T11:47:45.973Z,5.59
2018-12-21T11:50:14.069Z,5.55
2018-12-21T11:52:41.460Z,5.48
2018-12-21T11:55:08.867Z,5.43
2018-12-21T11:57:36.288Z,5.38
2018-12-21T12:00:05.523Z,5.37
2018-12-21T12:02:32.995Z,5.37
2018-12-21T12:05:00.690Z,5.37
2018-12-21T12:07:28.081Z,5.35
2018-12-21T12:09:55.968Z,5.34
2018-12-21T12:12:23.431Z,5.32
2018-12-21T12:14:50.840Z,5.33
2018-12-21T12:17:18.828Z,5.33
2018-12-21T12:19:47.190Z,5.37
2018-12-21T12:22:14.594Z,5.40
2018-12-21T12:24:41.984Z,5.48
2018-12-21T12:27:09.512Z,5.55
2018-12-21T12:29:37.016Z,5.61
2018-12-21T12:32:04.462Z,5.65
2018-12-21T12:34:32.031Z,5.67
2018-12-21T12:36:59.423Z,5.69
2018-12-21T12:39:26.827Z,5.72
2018-12-21T12:41:54.507Z,5.78
2018-12-21T12:44:21.901Z,5.81
2018-12-21T12:46:49.305Z,5.88
2018-12-21T12:49:16.727Z,5.94
2018-12-21T12:51:44.128Z,5.99
2018-12-21T12:54:11.524Z,6.04
2018-12-21T12:56:39.125Z,6.06
2018-12-21T12:59:06.546Z,6.08
2018-12-21T13:01:33.929Z,6.13
2018-12-21T13:04:01.608Z,6.14
2018-12-21T13:06:29.056Z,6.16
2018-12-21T13:08:56.500Z,6.19
2018-12-21T13:11:24.142Z,6.25
2018-12-21T13:13:51.902Z,6.29
2018-12-21T13:16:19.300Z,6.33
2018-12-21T13:18:46.748Z,6.31
2018-12-21T13:21:14.140Z,6.29
2018-12-21T13:23:41.536Z,6.25
2018-12-21T13:26:09.000Z,6.25
2018-12-21T13:28:36.542Z,6.23
2018-12-21T13:31:04.021Z,6.25
2018-12-21T13:33:31.691Z,6.25
2018-12-21T13:35:59.393Z,6.27
2018-12-21T13:38:26.804Z,6.32
2018-12-21T13:40:54.484Z,6.35
2018-12-21T13:43:21.885Z,6.34
2018-12-21T13:45:49.796Z,6.35
2018-12-21T13:48:17.232Z,6.39
2018-12-21T13:50:44.902Z,6.42
2018-12-21T13:53:12.605Z,6.48
2018-12-21T13:55:40.148Z,6.53
2018-12-21T13:58:07.956Z,6.58
2018-12-21T14:00:35.354Z,6.65
2018-12-21T14:03:02.763Z,6.71
2018-12-21T14:05:30.461Z,6.79
2018-12-21T14:07:57.848Z,6.84
2018-12-21T14:10:25.304Z,6.89
2018-12-21T14:12:52.697Z,6.91
2018-12-21T14:15:20.089Z,6.88
2018-12-21T14:17:47.784Z,6.87
2018-12-21T14:20:15.197Z,6.90
2018-12-21T14:22:43.509Z,6.92
2018-12-21T14:25:11.040Z,6.92
2018-12-21T14:27:38.436Z,6.89
2018-12-21T14:30:07.452Z,6.83
2018-12-21T14:32:35.073Z,6.78
2018-12-21T14:35:03.375Z,6.71
2018-12-21T14:37:30.771Z,6.66
2018-12-21T14:39:58.374Z,6.57
2018-12-21T14:42:25.819Z,6.50
2018-12-21T14:44:53.216Z,6.44
2018-12-21T14:47:20.941Z,6.36
2018-12-21T14:49:48.331Z,6.28
2018-12-21T14:52:15.730Z,6.23
2018-12-21T14:54:43.317Z,6.20
2018-12-21T14:57:11.638Z,6.17
2018-12-21T14:59:39.032Z,6.16
2018-12-21T15:02:06.599Z,6.13
2018-12-21T15:04:34.407Z,6.14
2018-12-21T15:07:01.820Z,6.13
2018-12-21T15:09:29.589Z,6.12
2018-12-21T15:11:57.100Z,6.09
2018-12-21T15:14:24.604Z,6.08
2018-12-21T15:16:52.036Z,6.07
2018-12-21T15:19:20.159Z,6.08
2018-12-21T15:21:47.566Z,6.07
2018-12-21T15:24:15.364Z,6.07
2018-12-21T15:26:42.760Z,6.07
2018-12-21T15:29:10.151Z,6.11
2018-12-21T15:31:37.827Z,6.11
2018-12-21T15:34:05.232Z,6.13
2018-12-21T15:36:33.203Z,6.17
2018-12-21T15:39:00.832Z,6.21
2018-12-21T15:41:28.226Z,6.22
2018-12-21T15:43:55.618Z,6.22
2018-12-21T15:46:23.184Z,6.26
2018-12-21T15:48:50.574Z,6.27
2018-12-21T15:51:17.994Z,6.28
2018-12-21T15:53:45.423Z,6.29
2018-12-21T15:56:12.816Z,6.34
2018-12-21T15:58:40.800Z,6.38
2018-12-21T16:01:08.219Z,6.40
2018-12-21T16:03:35.944Z,6.40
2018-12-21T16:06:03.352Z,6.43
2018-12-21T16:08:31.031Z,6.45
2018-12-21T16:10:58.707Z,6.46
2018-12-21T16:13:26.223Z,6.48
2018-12-21T16:15:53.649Z,6.50
2018-12-21T16:18:21.057Z,6.48
2018-12-21T16:20:48.455Z,6.48
2018-12-21T16:23:15.875Z,6.48
2018-12-21T16:25:43.303Z,6.53
2018-12-21T16:28:10.701Z,6.57
2018-12-21T16:30:38.141Z,6.59
2018-12-21T16:33:05.537Z,6.65
2018-12-21T16:35:32.934Z,6.67
2018-12-21T16:38:00.609Z,6.70
2018-12-21T16:40:28.006Z,6.71
2018-12-21T16:42:55.460Z,6.75
2018-12-21T16:45:23.063Z,6.79
2018-12-21T16:47:50.464Z,6.78
2018-12-21T16:50:17.988Z,6.78
2018-12-21T16:52:45.548Z,6.81
2018-12-21T16:55:12.944Z,6.82
2018-12-21T16:57:41.126Z,6.84
2018-12-21T17:00:10.974Z,6.80
2018-12-21T17:02:38.369Z,6.79
2018-12-21T17:05:06.479Z,6.80
2018-12-21T17:07:34.078Z,6.81
2018-12-21T17:10:01.987Z,6.82
2018-12-21T17:12:29.383Z,6.85
2018-12-21T17:14:56.964Z,6.86
2018-12-21T17:17:24.371Z,6.88
2018-12-21T17:19:52.448Z,6.89
2018-12-21T17:22:20.059Z,6.94
2018-12-21T17:24:47.679Z,6.99
2018-12-21T17:27:15.059Z,7.00
2018-12-21T17:29:42.476Z,7.01
2018-12-21T17:32:09.872Z,7.01
2018-12-21T17:34:37.265Z,7.02
2018-12-21T17:37:04.781Z,7.05
2018-12-21T17:39:33.071Z,7.06
2018-12-21T17:42:00.519Z,7.07
2018-12-21T17:44:28.070Z,7.08
2018-12-21T17:46:55.547Z,7.06
2018-12-21T17:49:23.088Z,7.03
2018-12-21T17:51:50.748Z,7.00
2018-12-21T17:54:18.144Z,6.98
2018-12-21T17:56:45.544Z,6.95
2018-12-21T17:59:14.428Z,6.94
2018-12-21T18:01:42.159Z,6.93
2018-12-21T18:04:10.089Z,6.89
2018-12-21T18:06:37.503Z,6.87
2018-12-21T18:09:06.421Z,6.85
2018-12-21T18:11:34.739Z,6.83
2018-12-21T18:14:02.345Z,6.80
2018-12-21T18:16:30.163Z,6.80
2018-12-21T18:18:57.769Z,6.77
2018-12-21T18:21:25.639Z,6.75
2018-12-21T18:23:53.022Z,6.73
2018-12-21T18:26:20.431Z,6.69
2018-12-21T18:28:47.880Z,6.67
2018-12-21T18:31:15.694Z,6.65
2018-12-21T18:33:44.809Z,6.64
2018-12-21T18:36:12.349Z,6.62
2018-12-21T18:38:39.747Z,6.62
2018-12-21T18:41:07.144Z,6.63
2018-12-21T18:43:34.565Z,6.61
2018-12-21T18:46:01.948Z,6.63
2018-12-21T18:48:29.360Z,6.63
2018-12-21T18:50:56.823Z,6.66
2018-12-21T18:53:24.223Z,6.66
2018-12-21T18:55:51.866Z,6.67
2018-12-21T18:58:19.399Z,6.66
2018-12-21T19:00:46.825Z,6.64
2018-12-21T19:03:17.719Z,6.63
2018-12-21T19:05:47.874Z,6.65
2018-12-21T19:08:27.230Z,6.62
2018-12-21T19:10:56.479Z,6.62
2018-12-21T19:13:24.271Z,6.62
2018-12-21T19:15:51.729Z,6.61
2018-12-21T19:18:19.151Z,6.62
2018-12-21T19:20:47.207Z,6.63
2018-12-21T19:23:14.603Z,6.64
2018-12-21T19:25:42.971Z,6.63
2018-12-21T19:28:11.829Z,6.60
2018-12-21T19:30:39.227Z,6.61
2018-12-21T19:33:06.875Z,6.62
2018-12-21T19:35:34.352Z,6.64
2018-12-21T19:38:01.746Z,6.63
2018-12-21T19:40:29.274Z,6.64
2018-12-21T19:42:56.668Z,6.68
2018-12-21T19:45:24.055Z,6.70
2018-12-21T19:47:51.650Z,6.73
2018-12-21T19:50:19.053Z,6.74
2018-12-21T19:52:46.447Z,6.75
2018-12-21T19:55:18.211Z,6.76
2018-12-21T19:57:46.403Z,6.75
2018-12-21T20:00:13.799Z,6.71
2018-12-21T20:02:41.393Z,6.68
2018-12-21T20:05:08.789Z,6.69
2018-12-21T20:07:36.184Z,6.71
2018-12-21T20:10:05.042Z,6.73
2018-12-21T20:12:32.627Z,6.74
2018-12-21T20:15:00.247Z,6.76
2018-12-21T20:17:27.777Z,6.78
2018-12-21T20:19:55.189Z,6.79
2018-12-21T20:22:22.584Z,6.81
2018-12-21T20:24:51.667Z,6.81
2018-12-21T20:27:21.246Z,6.82
2018-12-21T20:29:50.085Z,6.83
2018-12-21T20:32:18.677Z,6.82
2018-12-21T20:34:56.557Z,6.79
2018-12-21T20:37:27.149Z,6.81
2018-12-21T20:39:54.549Z,6.84
2018-12-21T20:42:21.951Z,6.89
2018-12-21T20:44:49.560Z,6.92
2018-12-21T20:47:17.321Z,6.93
2018-12-21T20:49:44.739Z,6.91
2018-12-21T20:52:12.760Z,6.90
2018-12-21T20:54:40.346Z,6.92
2018-12-21T20:57:09.204Z,6.93
2018-12-21T20:59:36.911Z,6.94
2018-12-21T21:02:04.694Z,6.95
2018-12-21T21:04:32.088Z,6.95
2018-12-21T21:06:59.555Z,6.97
2018-12-21T21:09:27.350Z,6.99
2018-12-21T21:11:54.954Z,7.00
2018-12-21T21:14:22.528Z,7.02
2018-12-21T21:16:49.987Z,7.04
2018-12-21T21:19:17.396Z,7.05
2018-12-21T21:21:44.853Z,7.04
2018-12-21T21:24:12.614Z,7.06
2018-12-21T21:26:40.007Z,7.06
2018-12-21T21:29:07.797Z,7.08
2018-12-21T21:31:35.249Z,7.08
2018-12-21T21:34:02.643Z,7.08
2018-12-21T21:36:30.351Z,7.07
2018-12-21T21:38:57.751Z,7.07
2018-12-21T21:41:25.163Z,7.07
2018-12-21T21:43:52.905Z,7.07
2018-12-21T21:46:20.289Z,7.06
2018-12-21T21:48:47.691Z,7.07
2018-12-21T21:51:15.142Z,7.09
2018-12-21T21:53:42.547Z,7.10
2018-12-21T21:56:09.932Z,7.09
2018-12-21T21:58:37.952Z,7.10
2018-12-21T22:01:05.345Z,7.09
2018-12-21T22:03:33.286Z,7.10
2018-12-21T22:06:00.736Z,7.10
2018-12-21T22:08:28.129Z,7.12
2018-12-21T22:11:01.838Z,7.09
2018-12-21T22:13:25.083Z,7.09
2018-12-21T22:15:53.007Z,7.08
2018-12-21T22:18:20.699Z,7.06
2018-12-21T22:20:48.195Z,7.04
2018-12-21T22:23:16.504Z,7.02
2018-12-21T22:25:53.143Z,7.01
2018-12-21T22:28:14.117Z,6.99
2018-12-21T22:30:41.515Z,7.00
2018-12-21T22:33:08.905Z,6.98
2018-12-21T22:35:36.489Z,6.95
2018-12-21T22:38:03.885Z,6.95
2018-12-21T22:40:31.277Z,6.96
2018-12-21T22:42:58.858Z,6.98
2018-12-21T22:45:26.259Z,6.98
2018-12-21T22:47:53.648Z,6.99
2018-12-21T22:50:21.216Z,6.99
2018-12-21T22:52:49.015Z,7.01
2018-12-21T22:55:16.398Z,7.01
2018-12-21T22:57:44.000Z,7.02
2018-12-21T23:00:14.874Z,7.03
2018-12-21T23:02:42.276Z,7.04
2018-12-21T23:05:10.678Z,7.04
2018-12-21T23:07:38.076Z,7.06
2018-12-21T23:10:07.289Z,7.11
2018-12-21T23:12:34.894Z,7.16
2018-12-21T23:15:02.308Z,7.20
2018-12-21T23:17:29.696Z,7.25
2018-12-21T23:19:57.361Z,7.29
2018-12-21T23:22:24.752Z,7.34
2018-12-21T23:24:52.143Z,7.39
2018-12-21T23:27:19.640Z,7.45
2018-12-21T23:29:47.062Z,7.48
2018-12-21T23:32:14.443Z,7.51
2018-12-21T23:34:42.003Z,7.51
2018-12-21T23:37:09.402Z,7.53
2018-12-21T23:39:36.792Z,7.54
2018-12-21T23:42:04.380Z,7.55
2018-12-21T23:44:32.622Z,7.58
2018-12-21T23:47:00.004Z,7.56
2018-12-21T23:49:27.576Z,7.55
2018-12-21T23:51:54.968Z,7.54
2018-12-21T23:54:22.368Z,7.52
2018-12-21T23:56:49.936Z,7.49
2018-12-21T23:59:17.364Z,7.47
